sensor_id;sensor_type;location;lat;lon;timestamp;P1;durP1;ratioP1;P2;durP2;ratioP2
46719;SDS011;32452;51.382;-0.002;2023-11-19T00:00:17;40.70;;;7.25;;
46719;SDS011;32452;51.382;-0.002;2023-11-19T00:03:03;29.35;;;8.52;;
46719;SDS011;32452;51.382;-0.002;2023-11-19T00:05:51;32.08;;;8.38;;
46719;SDS011;32452;51.382;-0.002;2023-11-19T00:08:37;31.30;;;6.78;;
46719;SDS011;32452;51.382;-0.002;2023-11-19T00:11:23;33.22;;;6.95;;
46719;SDS011;32452;51.382;-0.002;2023-11-19T00:14:08;39.20;;;7.57;;
46719;SDS011;32452;51.382;-0.002;2023-11-19T00:16:54;37.35;;;7.72;;
46719;SDS011;32452;51.382;-0.002;2023-11-19T00:19:39;36.92;;;9.32;;
46719;SDS011;32452;51.382;-0.002;2023-11-19T00:22:25;35.75;;;9.15;;
46719;SDS011;32452;51.382;-0.002;2023-11-19T00:25:11;29.40;;;6.75;;
46719;SDS011;32452;51.382;-0.002;2023-11-19T00:27:57;40.90;;;6.90;;
46719;SDS011;32452;51.382;-0.002;2023-11-19T00:30:45;46.13;;;8.52;;
46719;SDS011;32452;51.382;-0.002;2023-11-19T00:33:31;42.63;;;8.93;;
46719;SDS011;32452;51.382;-0.002;2023-11-19T00:36:16;38.88;;;8.45;;
46719;SDS011;32452;51.382;-0.002;2023-11-19T00:39:02;37.53;;;6.43;;
46719;SDS011;32452;51.382;-0.002;2023-11-19T00:41:48;38.60;;;6.80;;
46719;SDS011;32452;51.382;-0.002;2023-11-19T00:44:33;47.38;;;7.18;;
46719;SDS011;32452;51.382;-0.002;2023-11-19T00:47:19;37.13;;;7.35;;
46719;SDS011;32452;51.382;-0.002;2023-11-19T00:50:06;39.35;;;8.25;;
46719;SDS011;32452;51.382;-0.002;2023-11-19T00:52:54;46.97;;;9.55;;
46719;SDS011;32452;51.382;-0.002;2023-11-19T00:55:40;34.08;;;7.65;;
46719;SDS011;32452;51.382;-0.002;2023-11-19T00:58:28;34.53;;;6.07;;
46719;SDS011;32452;51.382;-0.002;2023-11-19T01:01:14;42.35;;;9.00;;
46719;SDS011;32452;51.382;-0.002;2023-11-19T01:04:00;53.72;;;7.82;;
46719;SDS011;32452;51.382;-0.002;2023-11-19T01:06:45;49.67;;;8.35;;
46719;SDS011;32452;51.382;-0.002;2023-11-19T01:09:34;36.33;;;7.95;;
46719;SDS011;32452;51.382;-0.002;2023-11-19T01:12:20;40.55;;;8.23;;
46719;SDS011;32452;51.382;-0.002;2023-11-19T01:15:06;41.20;;;8.43;;
46719;SDS011;32452;51.382;-0.002;2023-11-19T01:17:53;39.80;;;9.50;;
46719;SDS011;32452;51.382;-0.002;2023-11-19T01:20:40;45.13;;;8.45;;
46719;SDS011;32452;51.382;-0.002;2023-11-19T01:23:25;43.70;;;8.40;;
46719;SDS011;32452;51.382;-0.002;2023-11-19T01:26:11;45.17;;;11.35;;
46719;SDS011;32452;51.382;-0.002;2023-11-19T01:28:58;55.67;;;7.68;;
46719;SDS011;32452;51.382;-0.002;2023-11-19T01:31:45;34.95;;;9.00;;
46719;SDS011;32452;51.382;-0.002;2023-11-19T01:34:36;37.83;;;8.48;;
46719;SDS011;32452;51.382;-0.002;2023-11-19T01:37:22;41.90;;;8.68;;
46719;SDS011;32452;51.382;-0.002;2023-11-19T01:40:08;39.10;;;6.65;;
46719;SDS011;32452;51.382;-0.002;2023-11-19T01:42:56;35.05;;;7.47;;
46719;SDS011;32452;51.382;-0.002;2023-11-19T01:45:42;40.60;;;8.70;;
46719;SDS011;32452;51.382;-0.002;2023-11-19T01:48:27;37.25;;;8.20;;
46719;SDS011;32452;51.382;-0.002;2023-11-19T01:51:13;40.80;;;8.27;;
46719;SDS011;32452;51.382;-0.002;2023-11-19T01:54:01;39.65;;;8.57;;
46719;SDS011;32452;51.382;-0.002;2023-11-19T01:56:47;44.50;;;8.57;;
46719;SDS011;32452;51.382;-0.002;2023-11-19T01:59:33;39.20;;;9.38;;
46719;SDS011;32452;51.382;-0.002;2023-11-19T02:02:19;39.47;;;7.00;;
46719;SDS011;32452;51.382;-0.002;2023-11-19T02:05:06;42.28;;;6.35;;
46719;SDS011;32452;51.382;-0.002;2023-11-19T02:07:52;34.72;;;7.40;;
46719;SDS011;32452;51.382;-0.002;2023-11-19T02:10:38;43.92;;;8.95;;
46719;SDS011;32452;51.382;-0.002;2023-11-19T02:13:24;49.35;;;7.78;;
46719;SDS011;32452;51.382;-0.002;2023-11-19T02:16:11;37.88;;;7.85;;
46719;SDS011;32452;51.382;-0.002;2023-11-19T02:18:57;43.65;;;9.05;;
46719;SDS011;32452;51.382;-0.002;2023-11-19T02:21:42;40.90;;;8.63;;
46719;SDS011;32452;51.382;-0.002;2023-11-19T02:24:28;38.67;;;8.75;;
46719;SDS011;32452;51.382;-0.002;2023-11-19T02:27:26;37.63;;;7.97;;
46719;SDS011;32452;51.382;-0.002;2023-11-19T02:30:29;31.35;;;5.88;;
46719;SDS011;32452;51.382;-0.002;2023-11-19T02:33:14;40.33;;;7.63;;
46719;SDS011;32452;51.382;-0.002;2023-11-19T02:36:00;36.28;;;7.93;;
46719;SDS011;32452;51.382;-0.002;2023-11-19T02:38:47;34.40;;;7.45;;
46719;SDS011;32452;51.382;-0.002;2023-11-19T02:41:32;39.83;;;7.43;;
46719;SDS011;32452;51.382;-0.002;2023-11-19T02:44:18;30.60;;;7.03;;
46719;SDS011;32452;51.382;-0.002;2023-11-19T02:47:05;34.10;;;7.28;;
46719;SDS011;32452;51.382;-0.002;2023-11-19T02:49:52;39.65;;;7.40;;
46719;SDS011;32452;51.382;-0.002;2023-11-19T02:52:38;42.53;;;8.43;;
46719;SDS011;32452;51.382;-0.002;2023-11-19T02:55:24;38.45;;;9.20;;
46719;SDS011;32452;51.382;-0.002;2023-11-19T02:58:10;32.33;;;8.60;;
46719;SDS011;32452;51.382;-0.002;2023-11-19T03:01:05;33.83;;;6.38;;
46719;SDS011;32452;51.382;-0.002;2023-11-19T03:04:08;33.08;;;6.22;;
46719;SDS011;32452;51.382;-0.002;2023-11-19T03:06:57;33.30;;;6.25;;
46719;SDS011;32452;51.382;-0.002;2023-11-19T03:09:42;36.13;;;5.82;;
46719;SDS011;32452;51.382;-0.002;2023-11-19T03:12:28;35.22;;;5.15;;
46719;SDS011;32452;51.382;-0.002;2023-11-19T03:15:14;31.13;;;5.30;;
46719;SDS011;32452;51.382;-0.002;2023-11-19T03:18:00;32.65;;;6.85;;
46719;SDS011;32452;51.382;-0.002;2023-11-19T03:20:46;28.48;;;5.47;;
46719;SDS011;32452;51.382;-0.002;2023-11-19T03:23:32;32.17;;;7.10;;
46719;SDS011;32452;51.382;-0.002;2023-11-19T03:26:18;31.35;;;5.65;;
46719;SDS011;32452;51.382;-0.002;2023-11-19T03:29:03;27.38;;;5.93;;
46719;SDS011;32452;51.382;-0.002;2023-11-19T03:31:49;41.58;;;7.97;;
46719;SDS011;32452;51.382;-0.002;2023-11-19T03:34:35;39.28;;;6.15;;
46719;SDS011;32452;51.382;-0.002;2023-11-19T03:37:20;27.08;;;5.22;;
46719;SDS011;32452;51.382;-0.002;2023-11-19T03:40:06;31.17;;;7.07;;
46719;SDS011;32452;51.382;-0.002;2023-11-19T03:42:52;32.30;;;6.47;;
46719;SDS011;32452;51.382;-0.002;2023-11-19T03:45:37;35.45;;;7.07;;
46719;SDS011;32452;51.382;-0.002;2023-11-19T03:48:23;38.55;;;6.22;;
46719;SDS011;32452;51.382;-0.002;2023-11-19T03:51:08;38.28;;;5.75;;
46719;SDS011;32452;51.382;-0.002;2023-11-19T03:53:54;46.08;;;6.40;;
46719;SDS011;32452;51.382;-0.002;2023-11-19T03:56:39;34.80;;;8.10;;
46719;SDS011;32452;51.382;-0.002;2023-11-19T03:59:25;44.35;;;6.25;;
46719;SDS011;32452;51.382;-0.002;2023-11-19T04:02:11;31.13;;;5.28;;
46719;SDS011;32452;51.382;-0.002;2023-11-19T04:04:56;31.45;;;6.20;;
46719;SDS011;32452;51.382;-0.002;2023-11-19T04:07:42;31.67;;;5.55;;
46719;SDS011;32452;51.382;-0.002;2023-11-19T04:10:27;36.10;;;7.35;;
46719;SDS011;32452;51.382;-0.002;2023-11-19T04:13:13;44.83;;;8.00;;
46719;SDS011;32452;51.382;-0.002;2023-11-19T04:15:59;39.90;;;7.70;;
46719;SDS011;32452;51.382;-0.002;2023-11-19T04:18:44;38.80;;;8.02;;
46719;SDS011;32452;51.382;-0.002;2023-11-19T04:21:30;37.35;;;7.28;;
46719;SDS011;32452;51.382;-0.002;2023-11-19T04:24:15;34.85;;;7.03;;
46719;SDS011;32452;51.382;-0.002;2023-11-19T04:27:00;39.40;;;7.20;;
46719;SDS011;32452;51.382;-0.002;2023-11-19T04:29:46;39.25;;;7.72;;
46719;SDS011;32452;51.382;-0.002;2023-11-19T04:32:32;40.50;;;7.03;;
46719;SDS011;32452;51.382;-0.002;2023-11-19T04:35:17;34.92;;;6.00;;
46719;SDS011;32452;51.382;-0.002;2023-11-19T04:38:04;40.15;;;6.05;;
46719;SDS011;32452;51.382;-0.002;2023-11-19T04:40:50;41.63;;;6.70;;
46719;SDS011;32452;51.382;-0.002;2023-11-19T04:43:35;30.92;;;7.47;;
46719;SDS011;32452;51.382;-0.002;2023-11-19T04:46:21;31.42;;;5.97;;
46719;SDS011;32452;51.382;-0.002;2023-11-19T04:49:09;30.63;;;6.10;;
46719;SDS011;32452;51.382;-0.002;2023-11-19T04:51:55;37.45;;;6.85;;
46719;SDS011;32452;51.382;-0.002;2023-11-19T04:54:41;37.40;;;6.32;;
46719;SDS011;32452;51.382;-0.002;2023-11-19T04:57:28;34.30;;;7.10;;
46719;SDS011;32452;51.382;-0.002;2023-11-19T05:00:13;39.05;;;6.57;;
46719;SDS011;32452;51.382;-0.002;2023-11-19T05:03:01;28.38;;;5.93;;
46719;SDS011;32452;51.382;-0.002;2023-11-19T05:05:47;31.33;;;6.43;;
46719;SDS011;32452;51.382;-0.002;2023-11-19T05:08:32;39.63;;;6.45;;
46719;SDS011;32452;51.382;-0.002;2023-11-19T05:11:18;34.72;;;5.32;;
46719;SDS011;32452;51.382;-0.002;2023-11-19T05:14:05;41.00;;;8.48;;
46719;SDS011;32452;51.382;-0.002;2023-11-19T05:16:50;28.58;;;7.55;;
46719;SDS011;32452;51.382;-0.002;2023-11-19T05:19:36;36.65;;;6.35;;
46719;SDS011;32452;51.382;-0.002;2023-11-19T05:22:22;25.20;;;4.55;;
46719;SDS011;32452;51.382;-0.002;2023-11-19T05:25:07;36.45;;;6.63;;
46719;SDS011;32452;51.382;-0.002;2023-11-19T05:27:56;27.98;;;6.35;;
46719;SDS011;32452;51.382;-0.002;2023-11-19T05:30:42;26.42;;;6.65;;
46719;SDS011;32452;51.382;-0.002;2023-11-19T05:33:27;33.05;;;7.10;;
46719;SDS011;32452;51.382;-0.002;2023-11-19T05:36:13;36.00;;;6.50;;
46719;SDS011;32452;51.382;-0.002;2023-11-19T05:38:59;40.78;;;7.00;;
46719;SDS011;32452;51.382;-0.002;2023-11-19T05:41:44;34.00;;;6.47;;
46719;SDS011;32452;51.382;-0.002;2023-11-19T05:44:30;31.33;;;5.82;;
46719;SDS011;32452;51.382;-0.002;2023-11-19T05:47:15;29.00;;;5.70;;
46719;SDS011;32452;51.382;-0.002;2023-11-19T05:50:02;38.15;;;5.88;;
46719;SDS011;32452;51.382;-0.002;2023-11-19T05:52:47;36.88;;;6.72;;
46719;SDS011;32452;51.382;-0.002;2023-11-19T05:55:33;34.05;;;6.82;;
46719;SDS011;32452;51.382;-0.002;2023-11-19T05:58:19;27.80;;;6.13;;
46719;SDS011;32452;51.382;-0.002;2023-11-19T06:01:07;32.35;;;7.13;;
46719;SDS011;32452;51.382;-0.002;2023-11-19T06:03:53;34.72;;;6.50;;
46719;SDS011;32452;51.382;-0.002;2023-11-19T06:10:05;34.20;;;7.85;;
46719;SDS011;32452;51.382;-0.002;2023-11-19T06:12:51;27.85;;;4.80;;
46719;SDS011;32452;51.382;-0.002;2023-11-19T06:15:43;28.30;;;5.07;;
46719;SDS011;32452;51.382;-0.002;2023-11-19T06:18:29;25.85;;;6.07;;
46719;SDS011;32452;51.382;-0.002;2023-11-19T06:21:16;32.65;;;6.25;;
46719;SDS011;32452;51.382;-0.002;2023-11-19T06:24:02;34.25;;;6.55;;
46719;SDS011;32452;51.382;-0.002;2023-11-19T06:26:48;31.05;;;6.80;;
46719;SDS011;32452;51.382;-0.002;2023-11-19T06:29:33;32.63;;;5.45;;
46719;SDS011;32452;51.382;-0.002;2023-11-19T06:32:19;29.00;;;5.95;;
46719;SDS011;32452;51.382;-0.002;2023-11-19T06:35:05;27.08;;;6.15;;
46719;SDS011;32452;51.382;-0.002;2023-11-19T06:37:51;33.08;;;5.97;;
46719;SDS011;32452;51.382;-0.002;2023-11-19T06:40:36;27.77;;;5.10;;
46719;SDS011;32452;51.382;-0.002;2023-11-19T06:43:21;30.08;;;5.72;;
46719;SDS011;32452;51.382;-0.002;2023-11-19T06:46:14;28.25;;;6.57;;
46719;SDS011;32452;51.382;-0.002;2023-11-19T06:49:02;26.60;;;7.20;;
46719;SDS011;32452;51.382;-0.002;2023-11-19T06:51:48;29.00;;;5.68;;
46719;SDS011;32452;51.382;-0.002;2023-11-19T06:54:34;33.20;;;5.70;;
46719;SDS011;32452;51.382;-0.002;2023-11-19T06:57:19;27.58;;;5.47;;
46719;SDS011;32452;51.382;-0.002;2023-11-19T07:00:05;32.05;;;5.18;;
46719;SDS011;32452;51.382;-0.002;2023-11-19T07:02:51;24.17;;;3.92;;
46719;SDS011;32452;51.382;-0.002;2023-11-19T07:05:37;27.85;;;4.80;;
46719;SDS011;32452;51.382;-0.002;2023-11-19T07:08:25;32.15;;;6.03;;
46719;SDS011;32452;51.382;-0.002;2023-11-19T07:11:12;24.92;;;5.28;;
46719;SDS011;32452;51.382;-0.002;2023-11-19T07:13:59;27.83;;;4.57;;
46719;SDS011;32452;51.382;-0.002;2023-11-19T07:16:45;25.88;;;5.65;;
46719;SDS011;32452;51.382;-0.002;2023-11-19T07:19:31;27.77;;;5.50;;
46719;SDS011;32452;51.382;-0.002;2023-11-19T07:22:16;31.00;;;6.60;;
46719;SDS011;32452;51.382;-0.002;2023-11-19T07:25:02;29.05;;;4.57;;
46719;SDS011;32452;51.382;-0.002;2023-11-19T07:27:48;41.85;;;8.30;;
46719;SDS011;32452;51.382;-0.002;2023-11-19T07:30:34;21.98;;;4.63;;
46719;SDS011;32452;51.382;-0.002;2023-11-19T07:33:19;25.30;;;5.30;;
46719;SDS011;32452;51.382;-0.002;2023-11-19T07:36:05;31.33;;;4.65;;
46719;SDS011;32452;51.382;-0.002;2023-11-19T07:38:51;25.40;;;4.75;;
46719;SDS011;32452;51.382;-0.002;2023-11-19T07:41:36;22.38;;;3.70;;
46719;SDS011;32452;51.382;-0.002;2023-11-19T07:44:22;20.77;;;4.25;;
46719;SDS011;32452;51.382;-0.002;2023-11-19T07:47:08;15.32;;;3.58;;
46719;SDS011;32452;51.382;-0.002;2023-11-19T07:49:53;23.92;;;6.78;;
46719;SDS011;32452;51.382;-0.002;2023-11-19T07:52:39;24.92;;;5.88;;
46719;SDS011;32452;51.382;-0.002;2023-11-19T07:55:24;28.10;;;5.43;;
46719;SDS011;32452;51.382;-0.002;2023-11-19T07:58:10;22.67;;;4.97;;
46719;SDS011;32452;51.382;-0.002;2023-11-19T08:00:56;22.75;;;4.40;;
46719;SDS011;32452;51.382;-0.002;2023-11-19T08:03:41;28.52;;;4.78;;
46719;SDS011;32452;51.382;-0.002;2023-11-19T08:06:43;28.70;;;4.88;;
46719;SDS011;32452;51.382;-0.002;2023-11-19T08:09:28;19.30;;;5.03;;
46719;SDS011;32452;51.382;-0.002;2023-11-19T08:12:14;22.38;;;4.20;;
46719;SDS011;32452;51.382;-0.002;2023-11-19T08:15:02;17.95;;;4.50;;
46719;SDS011;32452;51.382;-0.002;2023-11-19T08:17:49;29.45;;;5.57;;
46719;SDS011;32452;51.382;-0.002;2023-11-19T08:20:36;25.45;;;4.50;;
46719;SDS011;32452;51.382;-0.002;2023-11-19T08:23:21;22.33;;;5.03;;
46719;SDS011;32452;51.382;-0.002;2023-11-19T08:26:08;21.10;;;4.30;;
46719;SDS011;32452;51.382;-0.002;2023-11-19T08:28:54;24.45;;;4.63;;
46719;SDS011;32452;51.382;-0.002;2023-11-19T08:31:40;25.08;;;5.20;;
46719;SDS011;32452;51.382;-0.002;2023-11-19T08:34:25;26.05;;;4.45;;
46719;SDS011;32452;51.382;-0.002;2023-11-19T08:37:11;17.98;;;4.28;;
46719;SDS011;32452;51.382;-0.002;2023-11-19T08:39:57;23.25;;;4.35;;
46719;SDS011;32452;51.382;-0.002;2023-11-19T08:42:44;28.20;;;4.15;;
46719;SDS011;32452;51.382;-0.002;2023-11-19T08:45:29;27.90;;;4.82;;
46719;SDS011;32452;51.382;-0.002;2023-11-19T08:48:17;18.65;;;3.60;;
46719;SDS011;32452;51.382;-0.002;2023-11-19T08:51:02;23.02;;;4.20;;
46719;SDS011;32452;51.382;-0.002;2023-11-19T08:53:49;29.45;;;4.90;;
46719;SDS011;32452;51.382;-0.002;2023-11-19T08:56:34;21.83;;;4.18;;
46719;SDS011;32452;51.382;-0.002;2023-11-19T08:59:20;17.90;;;3.22;;
46719;SDS011;32452;51.382;-0.002;2023-11-19T09:02:06;20.60;;;3.95;;
46719;SDS011;32452;51.382;-0.002;2023-11-19T09:04:54;20.35;;;4.60;;
46719;SDS011;32452;51.382;-0.002;2023-11-19T09:07:39;24.35;;;4.78;;
46719;SDS011;32452;51.382;-0.002;2023-11-19T09:10:25;20.33;;;4.15;;
46719;SDS011;32452;51.382;-0.002;2023-11-19T09:13:12;24.60;;;4.32;;
46719;SDS011;32452;51.382;-0.002;2023-11-19T09:15:57;24.02;;;5.43;;
46719;SDS011;32452;51.382;-0.002;2023-11-19T09:18:48;28.88;;;4.30;;
46719;SDS011;32452;51.382;-0.002;2023-11-19T09:21:34;20.73;;;4.90;;
46719;SDS011;32452;51.382;-0.002;2023-11-19T09:24:23;23.33;;;4.20;;
46719;SDS011;32452;51.382;-0.002;2023-11-19T09:27:09;21.20;;;5.95;;
46719;SDS011;32452;51.382;-0.002;2023-11-19T09:29:55;24.08;;;4.28;;
46719;SDS011;32452;51.382;-0.002;2023-11-19T09:32:42;22.75;;;5.43;;
46719;SDS011;32452;51.382;-0.002;2023-11-19T09:35:29;21.50;;;4.70;;
46719;SDS011;32452;51.382;-0.002;2023-11-19T09:38:15;26.50;;;5.22;;
46719;SDS011;32452;51.382;-0.002;2023-11-19T09:41:00;26.30;;;4.85;;
46719;SDS011;32452;51.382;-0.002;2023-11-19T09:43:47;22.80;;;4.75;;
46719;SDS011;32452;51.382;-0.002;2023-11-19T09:46:32;27.95;;;5.45;;
46719;SDS011;32452;51.382;-0.002;2023-11-19T09:49:19;23.75;;;4.97;;
46719;SDS011;32452;51.382;-0.002;2023-11-19T09:52:11;21.80;;;4.82;;
46719;SDS011;32452;51.382;-0.002;2023-11-19T09:54:57;24.25;;;4.60;;
46719;SDS011;32452;51.382;-0.002;2023-11-19T09:57:43;21.17;;;5.47;;
46719;SDS011;32452;51.382;-0.002;2023-11-19T10:00:30;22.23;;;5.72;;
46719;SDS011;32452;51.382;-0.002;2023-11-19T10:03:16;23.77;;;5.22;;
46719;SDS011;32452;51.382;-0.002;2023-11-19T10:06:03;22.30;;;4.45;;
46719;SDS011;32452;51.382;-0.002;2023-11-19T10:08:53;28.58;;;5.28;;
46719;SDS011;32452;51.382;-0.002;2023-11-19T10:11:41;27.40;;;3.78;;
46719;SDS011;32452;51.382;-0.002;2023-11-19T10:14:26;17.75;;;3.95;;
46719;SDS011;32452;51.382;-0.002;2023-11-19T10:17:16;18.23;;;3.95;;
46719;SDS011;32452;51.382;-0.002;2023-11-19T10:20:02;18.00;;;3.60;;
46719;SDS011;32452;51.382;-0.002;2023-11-19T10:22:53;15.52;;;3.70;;
46719;SDS011;32452;51.382;-0.002;2023-11-19T10:25:40;15.60;;;4.05;;
46719;SDS011;32452;51.382;-0.002;2023-11-19T10:28:25;18.25;;;3.90;;
46719;SDS011;32452;51.382;-0.002;2023-11-19T10:31:18;15.55;;;3.75;;
46719;SDS011;32452;51.382;-0.002;2023-11-19T10:34:13;13.63;;;3.25;;
46719;SDS011;32452;51.382;-0.002;2023-11-19T10:37:29;20.45;;;3.65;;
46719;SDS011;32452;51.382;-0.002;2023-11-19T10:40:20;12.85;;;3.28;;
46719;SDS011;32452;51.382;-0.002;2023-11-19T10:43:06;14.63;;;3.58;;
46719;SDS011;32452;51.382;-0.002;2023-11-19T10:45:52;14.32;;;3.97;;
46719;SDS011;32452;51.382;-0.002;2023-11-19T10:48:38;15.82;;;3.88;;
46719;SDS011;32452;51.382;-0.002;2023-11-19T10:51:24;16.55;;;3.92;;
46719;SDS011;32452;51.382;-0.002;2023-11-19T10:54:10;17.75;;;3.13;;
46719;SDS011;32452;51.382;-0.002;2023-11-19T10:56:59;14.13;;;2.78;;
46719;SDS011;32452;51.382;-0.002;2023-11-19T10:59:46;12.20;;;2.72;;
46719;SDS011;32452;51.382;-0.002;2023-11-19T11:02:35;14.43;;;2.92;;
46719;SDS011;32452;51.382;-0.002;2023-11-19T11:05:26;19.13;;;3.40;;
46719;SDS011;32452;51.382;-0.002;2023-11-19T11:08:13;12.05;;;3.42;;
46719;SDS011;32452;51.382;-0.002;2023-11-19T11:10:59;19.95;;;3.72;;
46719;SDS011;32452;51.382;-0.002;2023-11-19T11:13:47;14.18;;;3.45;;
46719;SDS011;32452;51.382;-0.002;2023-11-19T11:16:34;15.95;;;3.33;;
46719;SDS011;32452;51.382;-0.002;2023-11-19T11:19:33;19.10;;;4.80;;
46719;SDS011;32452;51.382;-0.002;2023-11-19T11:22:20;16.30;;;3.55;;
46719;SDS011;32452;51.382;-0.002;2023-11-19T11:25:13;16.98;;;3.55;;
46719;SDS011;32452;51.382;-0.002;2023-11-19T11:31:13;19.77;;;3.88;;
46719;SDS011;32452;51.382;-0.002;2023-11-19T11:40:51;16.45;;;3.22;;
46719;SDS011;32452;51.382;-0.002;2023-11-19T11:44:05;22.08;;;3.33;;
46719;SDS011;32452;51.382;-0.002;2023-11-19T11:46:56;14.45;;;3.35;;
46719;SDS011;32452;51.382;-0.002;2023-11-19T11:49:42;29.98;;;3.72;;
46719;SDS011;32452;51.382;-0.002;2023-11-19T11:52:28;19.42;;;3.95;;
46719;SDS011;32452;51.382;-0.002;2023-11-19T11:55:15;17.85;;;3.83;;
46719;SDS011;32452;51.382;-0.002;2023-11-19T11:58:01;14.00;;;2.97;;
46719;SDS011;32452;51.382;-0.002;2023-11-19T12:00:47;17.15;;;3.97;;
46719;SDS011;32452;51.382;-0.002;2023-11-19T12:03:33;18.02;;;4.35;;
46719;SDS011;32452;51.382;-0.002;2023-11-19T12:06:21;23.55;;;5.20;;
46719;SDS011;32452;51.382;-0.002;2023-11-19T12:09:07;16.15;;;3.80;;
46719;SDS011;32452;51.382;-0.002;2023-11-19T12:12:07;14.88;;;2.70;;
46719;SDS011;32452;51.382;-0.002;2023-11-19T12:17:55;18.63;;;3.22;;
46719;SDS011;32452;51.382;-0.002;2023-11-19T12:20:41;17.67;;;5.32;;
46719;SDS011;32452;51.382;-0.002;2023-11-19T12:23:28;18.73;;;3.05;;
46719;SDS011;32452;51.382;-0.002;2023-11-19T12:26:21;22.38;;;4.82;;
46719;SDS011;32452;51.382;-0.002;2023-11-19T12:29:17;19.50;;;4.20;;
46719;SDS011;32452;51.382;-0.002;2023-11-19T12:32:03;12.70;;;3.58;;
46719;SDS011;32452;51.382;-0.002;2023-11-19T12:34:51;19.10;;;3.15;;
46719;SDS011;32452;51.382;-0.002;2023-11-19T12:37:50;17.73;;;3.90;;
46719;SDS011;32452;51.382;-0.002;2023-11-19T12:40:36;12.07;;;2.67;;
46719;SDS011;32452;51.382;-0.002;2023-11-19T12:43:22;20.67;;;4.00;;
46719;SDS011;32452;51.382;-0.002;2023-11-19T12:46:23;19.83;;;3.60;;
46719;SDS011;32452;51.382;-0.002;2023-11-19T12:49:10;13.45;;;2.88;;
46719;SDS011;32452;51.382;-0.002;2023-11-19T12:51:56;15.45;;;3.35;;
46719;SDS011;32452;51.382;-0.002;2023-11-19T12:54:43;20.55;;;3.17;;
46719;SDS011;32452;51.382;-0.002;2023-11-19T12:57:35;23.88;;;3.47;;
46719;SDS011;32452;51.382;-0.002;2023-11-19T13:00:25;17.80;;;3.17;;
46719;SDS011;32452;51.382;-0.002;2023-11-19T13:03:12;12.02;;;2.45;;
46719;SDS011;32452;51.382;-0.002;2023-11-19T13:06:08;15.27;;;3.15;;
46719;SDS011;32452;51.382;-0.002;2023-11-19T13:08:57;18.92;;;3.70;;
46719;SDS011;32452;51.382;-0.002;2023-11-19T13:11:43;18.35;;;3.00;;
46719;SDS011;32452;51.382;-0.002;2023-11-19T13:14:36;11.90;;;2.88;;
46719;SDS011;32452;51.382;-0.002;2023-11-19T13:17:27;14.18;;;3.10;;
46719;SDS011;32452;51.382;-0.002;2023-11-19T13:20:13;11.73;;;2.30;;
46719;SDS011;32452;51.382;-0.002;2023-11-19T13:23:04;15.25;;;3.17;;
46719;SDS011;32452;51.382;-0.002;2023-11-19T13:25:50;11.73;;;2.30;;
46719;SDS011;32452;51.382;-0.002;2023-11-19T13:28:36;14.82;;;2.15;;
46719;SDS011;32452;51.382;-0.002;2023-11-19T13:31:22;12.93;;;2.42;;
46719;SDS011;32452;51.382;-0.002;2023-11-19T13:34:08;13.63;;;2.35;;
46719;SDS011;32452;51.382;-0.002;2023-11-19T13:36:54;14.23;;;2.25;;
46719;SDS011;32452;51.382;-0.002;2023-11-19T13:39:41;15.45;;;2.97;;
46719;SDS011;32452;51.382;-0.002;2023-11-19T13:42:27;15.68;;;2.45;;
46719;SDS011;32452;51.382;-0.002;2023-11-19T13:45:13;10.80;;;2.47;;
46719;SDS011;32452;51.382;-0.002;2023-11-19T13:48:00;15.40;;;2.70;;
46719;SDS011;32452;51.382;-0.002;2023-11-19T13:50:46;16.02;;;2.30;;
46719;SDS011;32452;51.382;-0.002;2023-11-19T13:53:32;11.57;;;2.65;;
46719;SDS011;32452;51.382;-0.002;2023-11-19T13:56:36;9.70;;;2.67;;
46719;SDS011;32452;51.382;-0.002;2023-11-19T13:59:21;10.30;;;1.55;;
46719;SDS011;32452;51.382;-0.002;2023-11-19T14:02:07;13.32;;;2.78;;
46719;SDS011;32452;51.382;-0.002;2023-11-19T14:04:53;11.50;;;2.40;;
46719;SDS011;32452;51.382;-0.002;2023-11-19T14:07:42;8.23;;;1.92;;
46719;SDS011;32452;51.382;-0.002;2023-11-19T14:10:28;14.20;;;2.00;;
46719;SDS011;32452;51.382;-0.002;2023-11-19T14:13:14;10.90;;;1.95;;
46719;SDS011;32452;51.382;-0.002;2023-11-19T14:16:00;10.00;;;2.35;;
46719;SDS011;32452;51.382;-0.002;2023-11-19T14:18:46;12.55;;;2.00;;
46719;SDS011;32452;51.382;-0.002;2023-11-19T14:21:34;13.38;;;2.05;;
46719;SDS011;32452;51.382;-0.002;2023-11-19T14:24:19;10.88;;;1.83;;
46719;SDS011;32452;51.382;-0.002;2023-11-19T14:27:05;13.13;;;2.50;;
46719;SDS011;32452;51.382;-0.002;2023-11-19T14:29:51;8.07;;;1.55;;
46719;SDS011;32452;51.382;-0.002;2023-11-19T14:32:37;9.20;;;1.75;;
46719;SDS011;32452;51.382;-0.002;2023-11-19T14:35:23;12.10;;;1.80;;
46719;SDS011;32452;51.382;-0.002;2023-11-19T14:38:10;8.10;;;2.00;;
46719;SDS011;32452;51.382;-0.002;2023-11-19T14:40:55;10.70;;;1.85;;
46719;SDS011;32452;51.382;-0.002;2023-11-19T14:43:41;11.02;;;2.00;;
46719;SDS011;32452;51.382;-0.002;2023-11-19T14:46:27;11.88;;;1.73;;
46719;SDS011;32452;51.382;-0.002;2023-11-19T14:49:13;6.05;;;1.63;;
46719;SDS011;32452;51.382;-0.002;2023-11-19T14:51:59;8.30;;;1.70;;
46719;SDS011;32452;51.382;-0.002;2023-11-19T14:55:02;10.67;;;1.93;;
46719;SDS011;32452;51.382;-0.002;2023-11-19T14:57:48;7.70;;;1.40;;
46719;SDS011;32452;51.382;-0.002;2023-11-19T15:00:49;9.85;;;2.50;;
46719;SDS011;32452;51.382;-0.002;2023-11-19T15:03:35;12.63;;;2.92;;
46719;SDS011;32452;51.382;-0.002;2023-11-19T15:06:38;6.18;;;1.63;;
46719;SDS011;32452;51.382;-0.002;2023-11-19T15:09:25;10.13;;;1.77;;
46719;SDS011;32452;51.382;-0.002;2023-11-19T15:12:11;9.70;;;1.80;;
46719;SDS011;32452;51.382;-0.002;2023-11-19T15:14:56;10.45;;;2.28;;
46719;SDS011;32452;51.382;-0.002;2023-11-19T15:17:42;9.88;;;1.88;;
46719;SDS011;32452;51.382;-0.002;2023-11-19T15:20:28;9.98;;;1.63;;
46719;SDS011;32452;51.382;-0.002;2023-11-19T15:23:16;9.40;;;1.73;;
46719;SDS011;32452;51.382;-0.002;2023-11-19T15:26:01;15.05;;;2.13;;
46719;SDS011;32452;51.382;-0.002;2023-11-19T15:28:47;10.70;;;1.65;;
46719;SDS011;32452;51.382;-0.002;2023-11-19T15:31:33;9.45;;;1.65;;
46719;SDS011;32452;51.382;-0.002;2023-11-19T15:34:18;10.70;;;1.65;;
46719;SDS011;32452;51.382;-0.002;2023-11-19T15:37:04;9.43;;;1.88;;
46719;SDS011;32452;51.382;-0.002;2023-11-19T15:39:50;6.03;;;1.30;;
46719;SDS011;32452;51.382;-0.002;2023-11-19T15:42:36;11.02;;;1.80;;
46719;SDS011;32452;51.382;-0.002;2023-11-19T15:45:22;8.93;;;1.67;;
46719;SDS011;32452;51.382;-0.002;2023-11-19T15:48:07;10.13;;;1.45;;
46719;SDS011;32452;51.382;-0.002;2023-11-19T15:50:53;6.18;;;1.35;;
46719;SDS011;32452;51.382;-0.002;2023-11-19T15:53:39;14.40;;;2.17;;
46719;SDS011;32452;51.382;-0.002;2023-11-19T15:56:24;11.15;;;2.08;;
46719;SDS011;32452;51.382;-0.002;2023-11-19T15:59:10;9.07;;;1.70;;
46719;SDS011;32452;51.382;-0.002;2023-11-19T16:01:56;13.10;;;2.17;;
46719;SDS011;32452;51.382;-0.002;2023-11-19T16:04:42;6.82;;;2.42;;
46719;SDS011;32452;51.382;-0.002;2023-11-19T16:07:32;7.40;;;1.30;;
46719;SDS011;32452;51.382;-0.002;2023-11-19T16:10:18;8.45;;;1.67;;
46719;SDS011;32452;51.382;-0.002;2023-11-19T16:13:10;5.97;;;1.20;;
46719;SDS011;32452;51.382;-0.002;2023-11-19T16:15:56;5.13;;;1.50;;
46719;SDS011;32452;51.382;-0.002;2023-11-19T16:18:41;7.03;;;1.35;;
46719;SDS011;32452;51.382;-0.002;2023-11-19T16:21:27;6.47;;;0.90;;
46719;SDS011;32452;51.382;-0.002;2023-11-19T16:24:12;2.55;;;0.98;;
46719;SDS011;32452;51.382;-0.002;2023-11-19T16:26:58;5.78;;;1.52;;
46719;SDS011;32452;51.382;-0.002;2023-11-19T16:29:44;7.22;;;2.10;;
46719;SDS011;32452;51.382;-0.002;2023-11-19T16:32:30;9.15;;;1.73;;
46719;SDS011;32452;51.382;-0.002;2023-11-19T16:35:16;11.45;;;2.00;;